Altus Municipal, OK

20:10 CST le 20 novembre 2014 (GMT -0600)
Altus Air Force Base | Change Station
CLOSE
Current Station
Aéroport
Location: Altus AFB,
Altitude: 1378 ft
Stations météo à proximité

Alt. 1378 ft 34.67 °N, 99.27 °W | Updated 12 minutes ago

Ciel dégagé
Ciel dégagé
47 ° F
Paraît 47 ° F
N
10
Vent Variable Vent de NNE

Aujourd'hui
Haut(e) -- | Bas -- ° F
--% Risque de précip.
Hier
Haut(e) -- | Bas -- ° F
Precip. -- pouce
7:16 AM 5:29 PM
Lune descendante, 2% visible
Pression 30.00 pouce
Visibilité 10.0 Miles terrestres
Nuages Ciel dégagé
Point de rosée 40 ° F
Humidité 77%
Précipitations 0.00 pouce
Profondeur de la couche neigeuse Non disponible.
UV 0 sur 12
Pollen 3.00 sur 12
Qualité de l'air Non disponible.
Flu Activity Non disponible.
METAR KLTS 210158Z AUTO 03009KT 10SM CLR 08/05 A2998 RMK AO2 SLP158 T00830045 $

More Conditions Fewer Conditions

Pression 30.00 pouce
Visibilité 10.0 Miles terrestres
Nuages Ciel dégagé
Point de rosée 40 ° F
Humidité 77%
Précipitations 0.00 pouce
Profondeur de la couche neigeuse Non disponible.
UV 0 sur 12
Pollen 3.00 sur 12
Qualité de l'air Non disponible.
Flu Activity Non disponible.
METAR KLTS 210158Z AUTO 03009KT 10SM CLR 08/05 A2998 RMK AO2 SLP158 T00830045 $

More Conditions Fewer Conditions

10-Day Weather Forecast

Almanac

Astronomie

Nov. 20, 2014 Lever Coucher
Temps réel
Crépuscule civil
Crépuscule nautique
Crépuscule astronomique
Lune
Durée de lumière visible
Longueur du jour
Tomorrow will be .
, % of the Moon is Illuminated

Extrêmes aujourd'hui

State Highs State Lows

Community

WunderPhotos

Upload Photos

1,772,585 Photos téléchargées !

WunderBlogs® & News

Nearby

Qualité de l'air

  Qualité de l'air Indice de la qualité de l'air Polluant
Not available.

Épaisseur de neige

Station Depth Altitude

Activité sismique

Ville Distance Mag. Time & Date
Minimum magnitude displayed is 2.5.

Températures des eaux côtières

Lieu Température

Stations météo à proximité